Time;durP1;ratioP1;P1;durP2;ratioP2;P2;SDS_P1;SDS_P2;PMS_P1;PMS_P2;Temp;Humidity;BMP_temperature;BMP_pressure;BME280_temperature;BME280_humidity;BME280_pressure;Samples;Min_cycle;Max_cycle;Signal;HPM_P1;HPM_P2
2021/04/21 00:01:17;;;;;;;1.60;1.30;;;14.10;95.00;;;;;;5045312;28;20530;-67
2021/04/21 00:03:44;;;;;;;1.98;1.30;;;14.00;94.80;;;;;;5044845;28;20028;-66
2021/04/21 00:06:12;;;;;;;1.92;1.30;;;14.00;94.60;;;;;;5045432;28;20021;-66
2021/04/21 00:08:38;;;;;;;1.52;1.20;;;13.90;94.80;;;;;;5058878;28;20020;-67
2021/04/21 00:11:04;;;;;;;1.88;1.50;;;13.90;95.00;;;;;;5065690;28;20419;-67
2021/04/21 00:13:31;;;;;;;2.95;1.52;;;14.00;94.90;;;;;;5064802;28;20712;-67
2021/04/21 00:15:59;;;;;;;2.10;1.58;;;14.00;94.90;;;;;;5065049;28;20048;-67
2021/04/21 00:18:26;;;;;;;1.38;1.17;;;14.00;94.90;;;;;;5064634;28;20040;-68
2021/04/21 00:20:57;;;;;;;1.45;1.25;;;13.90;95.00;;;;;;5065076;28;20035;-68
2021/04/21 00:23:25;;;;;;;1.70;1.35;;;14.00;94.80;;;;;;5064794;28;20013;-67
2021/04/21 00:25:54;;;;;;;4.35;1.50;;;14.20;94.50;;;;;;5064754;28;20050;-67
2021/04/21 00:28:24;;;;;;;2.13;1.40;;;14.40;94.10;;;;;;5064894;28;20403;-67
2021/04/21 00:30:52;;;;;;;1.98;1.35;;;14.50;93.80;;;;;;5059581;28;20029;-67
2021/04/21 00:33:20;;;;;;;1.83;1.40;;;14.50;93.50;;;;;;5044628;28;20264;-68
2021/04/21 00:35:47;;;;;;;2.08;1.60;;;14.40;93.30;;;;;;5044636;28;20399;-67
2021/04/21 00:38:16;;;;;;;1.85;1.38;;;14.40;93.10;;;;;;5045153;28;20062;-67
2021/04/21 00:40:45;;;;;;;2.28;1.40;;;14.40;93.30;;;;;;5043967;28;20025;-67
2021/04/21 00:43:24;;;;;;;2.15;1.60;;;14.40;93.20;;;;;;5064546;28;20025;-67
2021/04/21 00:46:18;;;;;;;1.90;1.55;;;14.30;93.40;;;;;;5044653;28;20091;-68
2021/04/21 00:48:55;;;;;;;2.90;1.50;;;14.30;93.00;;;;;;5044037;28;20492;-67
2021/04/21 00:51:52;;;;;;;1.88;1.65;;;14.10;92.50;;;;;;5059879;28;20514;-66
2021/04/21 00:54:32;;;;;;;2.97;1.90;;;14.00;93.80;;;;;;5064099;28;20028;-67
2021/04/21 00:57:02;;;;;;;3.08;1.73;;;14.00;93.00;;;;;;5063808;28;20021;-66
2021/04/21 01:00:01;;;;;;;1.40;1.30;;;14.00;93.40;;;;;;5062151;28;20028;-66
2021/04/21 01:02:32;;;;;;;2.78;1.65;;;14.20;93.30;;;;;;5064265;28;20541;-67
2021/04/21 01:05:00;;;;;;;1.92;1.58;;;14.40;93.20;;;;;;5064084;28;20455;-67
2021/04/21 01:07:28;;;;;;;2.00;1.38;;;14.30;93.00;;;;;;5064174;28;20031;-67
2021/04/21 01:09:57;;;;;;;1.95;1.65;;;14.30;93.10;;;;;;5063839;28;20040;-67
2021/04/21 01:12:26;;;;;;;1.95;1.40;;;14.20;93.00;;;;;;5063813;28;20020;-67
2021/04/21 01:14:55;;;;;;;2.70;1.67;;;14.30;94.00;;;;;;5057479;28;20033;-67
2021/04/21 01:17:24;;;;;;;1.80;1.52;;;14.10;94.60;;;;;;5043352;28;20232;-67
2021/04/21 01:20:00;;;;;;;1.73;1.42;;;14.20;94.90;;;;;;5042517;28;20025;-66
2021/04/21 01:22:47;;;;;;;2.58;1.58;;;14.20;95.20;;;;;;5043845;28;20039;-67
2021/04/21 01:25:19;;;;;;;2.15;1.23;;;14.20;95.10;;;;;;5044456;28;20032;-66
2021/04/21 01:28:08;;;;;;;2.58;2.00;;;14.20;95.00;;;;;;5057418;28;20039;-67
2021/04/21 01:30:39;;;;;;;2.03;1.60;;;14.10;95.00;;;;;;5064089;28;20584;-67
2021/04/21 01:33:25;;;;;;;3.20;1.77;;;13.80;95.20;;;;;;5063864;28;20024;-66
2021/04/21 01:35:59;;;;;;;1.95;1.50;;;13.80;95.30;;;;;;5064176;28;20074;-65
2021/04/21 01:38:26;;;;;;;2.33;1.60;;;13.80;95.40;;;;;;5063574;28;20514;-65
2021/04/21 01:40:56;;;;;;;2.58;1.77;;;13.70;95.60;;;;;;5064175;28;20027;-66
2021/04/21 01:43:30;;;;;;;1.65;1.40;;;13.60;96.10;;;;;;5060591;28;20582;-67
2021/04/21 01:45:59;;;;;;;2.08;1.30;;;13.50;96.90;;;;;;5042878;28;20020;-67
2021/04/21 01:48:27;;;;;;;2.47;1.60;;;13.80;97.20;;;;;;5043581;28;20033;-67
2021/04/21 01:50:53;;;;;;;2.10;1.40;;;14.00;96.60;;;;;;5043944;28;20562;-67
2021/04/21 01:53:37;;;;;;;2.25;1.50;;;14.10;96.70;;;;;;5047742;28;20071;-67
2021/04/21 01:56:25;;;;;;;3.47;1.83;;;14.10;97.10;;;;;;5047570;28;20033;-66
2021/04/21 01:59:08;;;;;;;2.40;1.77;;;14.00;97.10;;;;;;5062239;28;20123;-66
2021/04/21 02:01:57;;;;;;;2.40;1.80;;;14.00;97.80;;;;;;5056274;28;20025;-67
2021/04/21 02:04:33;;;;;;;1.95;1.50;;;14.00;97.70;;;;;;5058372;28;20519;-67
2021/04/21 02:07:11;;;;;;;3.50;1.50;;;14.00;97.80;;;;;;5047712;28;20036;-67
2021/04/21 02:09:50;;;;;;;2.35;1.63;;;13.90;97.70;;;;;;5046909;28;20048;-67
2021/04/21 02:12:28;;;;;;;2.20;1.63;;;13.90;97.30;;;;;;5047996;28;20020;-68
2021/04/21 02:15:12;;;;;;;2.75;1.77;;;14.00;97.50;;;;;;5047940;28;20501;-68
2021/04/21 02:17:58;;;;;;;2.10;1.80;;;13.90;97.10;;;;;;5047999;28;20025;-67
2021/04/21 02:20:56;;;;;;;2.97;1.80;;;14.00;97.20;;;;;;5047545;28;20060;-67
2021/04/21 02:23:43;;;;;;;3.47;2.00;;;14.00;97.10;;;;;;5047173;28;20117;-67
2021/04/21 02:26:22;;;;;;;3.13;1.92;;;14.00;97.20;;;;;;5048438;28;20116;-67
2021/04/21 02:29:04;;;;;;;3.10;2.00;;;14.00;97.30;;;;;;5047680;28;20021;-66
2021/04/21 02:31:42;;;;;;;2.63;1.77;;;13.90;97.50;;;;;;5047430;28;20495;-66
2021/04/21 02:34:45;;;;;;;2.47;2.05;;;13.80;97.80;;;;;;5047573;28;20495;-65
2021/04/21 02:37:30;;;;;;;4.15;1.90;;;13.80;97.60;;;;;;5048148;28;20021;-65
2021/04/21 02:40:04;;;;;;;2.75;1.95;;;13.70;98.00;;;;;;5047174;28;20025;-66
2021/04/21 02:42:42;;;;;;;3.60;1.85;;;13.60;98.30;;;;;;5062860;28;20074;-66
2021/04/21 02:45:13;;;;;;;2.17;1.65;;;13.70;97.90;;;;;;5046288;28;20114;-67
2021/04/21 02:47:46;;;;;;;2.60;2.10;;;13.60;98.10;;;;;;5047148;28;20036;-67
2021/04/21 02:50:26;;;;;;;2.33;1.80;;;13.40;98.10;;;;;;5047164;28;20025;-67
2021/04/21 02:53:11;;;;;;;2.67;1.80;;;13.30;98.90;;;;;;5048433;28;20271;-64
2021/04/21 02:55:47;;;;;;;3.60;1.52;;;13.20;99.90;;;;;;5045704;28;20036;-60
2021/04/21 02:58:21;;;;;;;3.03;2.10;;;13.20;99.90;;;;;;5047929;28;20029;-59
2021/04/21 03:00:57;;;;;;;2.47;1.80;;;13.20;99.90;;;;;;5047144;28;20110;-59
2021/04/21 03:03:29;;;;;;;2.53;2.03;;;13.00;99.90;;;;;;5045929;28;20096;-59
2021/04/21 03:06:09;;;;;;;2.35;1.85;;;13.10;99.90;;;;;;5048487;28;20025;-59
2021/04/21 03:08:48;;;;;;;4.95;2.28;;;13.10;99.90;;;;;;5055666;28;20071;-59
2021/04/21 03:11:20;;;;;;;2.70;1.88;;;13.00;99.90;;;;;;5068128;28;20040;-59
2021/04/21 03:14:06;;;;;;;2.33;1.80;;;13.00;99.90;;;;;;5068226;28;20059;-59
2021/04/21 03:16:45;;;;;;;2.00;1.60;;;12.90;99.90;;;;;;5066989;28;20017;-59
2021/04/21 03:19:14;;;;;;;2.67;1.90;;;12.80;99.90;;;;;;5068109;28;20428;-59
2021/04/21 03:21:44;;;;;;;3.38;1.90;;;12.70;99.90;;;;;;5068223;28;20052;-60
2021/04/21 03:24:15;;;;;;;2.20;1.67;;;12.60;99.90;;;;;;5068067;28;20029;-59
2021/04/21 03:26:45;;;;;;;2.97;1.90;;;12.70;99.90;;;;;;5067617;28;20046;-59
2021/04/21 03:29:25;;;;;;;3.10;2.15;;;12.70;99.90;;;;;;5068006;28;20107;-59
2021/04/21 03:31:55;;;;;;;3.38;2.08;;;12.70;99.90;;;;;;5068647;28;20043;-60
2021/04/21 03:34:23;;;;;;;3.05;2.15;;;12.50;99.90;;;;;;5067931;28;20064;-59
2021/04/21 03:36:50;;;;;;;3.30;2.15;;;12.60;99.90;;;;;;5068593;28;20633;-59
2021/04/21 03:39:16;;;;;;;3.35;2.00;;;12.60;99.90;;;;;;5067710;28;20021;-59
2021/04/21 03:41:42;;;;;;;5.20;2.20;;;12.60;99.90;;;;;;5067535;28;20141;-59
2021/04/21 03:44:08;;;;;;;2.72;2.30;;;12.80;99.90;;;;;;5067684;28;20528;-59
2021/04/21 03:46:34;;;;;;;3.33;2.10;;;12.80;99.90;;;;;;5067228;28;20028;-59
2021/04/21 03:49:00;;;;;;;3.78;2.30;;;12.70;99.90;;;;;;5064673;28;20062;-60
2021/04/21 03:51:26;;;;;;;3.42;2.70;;;12.80;99.90;;;;;;5065805;28;20040;-60
2021/04/21 03:53:53;;;;;;;6.50;2.65;;;13.00;99.90;;;;;;5066393;28;20033;-59
2021/04/21 03:56:24;;;;;;;2.58;1.90;;;13.00;99.90;;;;;;5065664;28;20415;-60
2021/04/21 03:58:53;;;;;;;4.57;2.65;;;12.90;99.90;;;;;;5066536;28;20032;-60
2021/04/21 04:01:24;;;;;;;4.30;2.10;;;13.00;99.90;;;;;;5066286;28;20040;-60
2021/04/21 04:03:56;;;;;;;3.78;2.20;;;12.90;99.90;;;;;;5066253;28;20032;-60
2021/04/21 04:06:33;;;;;;;2.25;2.05;;;12.90;99.90;;;;;;5066096;28;20027;-60
2021/04/21 04:09:07;;;;;;;3.53;2.35;;;12.80;99.90;;;;;;5064986;28;20114;-60
2021/04/21 04:11:44;;;;;;;4.35;2.30;;;12.60;99.90;;;;;;5065303;28;20040;-60
2021/04/21 04:14:14;;;;;;;4.97;2.95;;;12.40;99.90;;;;;;5065227;28;20051;-60
2021/04/21 04:16:44;;;;;;;4.10;2.53;;;12.50;99.90;;;;;;5065152;28;20048;-60
2021/04/21 04:19:12;;;;;;;3.65;2.50;;;12.60;99.90;;;;;;5065905;28;20024;-60
2021/04/21 04:21:41;;;;;;;3.38;2.40;;;12.60;99.90;;;;;;5065604;28;20013;-60
2021/04/21 04:24:14;;;;;;;3.55;2.50;;;12.50;99.90;;;;;;5064468;28;20037;-60
2021/04/21 04:26:42;;;;;;;4.03;2.85;;;12.30;99.90;;;;;;5065673;28;20028;-60
2021/04/21 04:29:09;;;;;;;4.07;2.65;;;12.40;99.90;;;;;;5065505;28;20028;-60
2021/04/21 04:31:36;;;;;;;3.50;2.63;;;12.40;99.90;;;;;;5065048;28;20038;-60
2021/04/21 04:34:04;;;;;;;3.35;2.20;;;12.40;99.90;;;;;;5065214;28;20470;-60
2021/04/21 04:36:41;;;;;;;5.05;3.00;;;12.30;99.90;;;;;;5065359;28;20078;-60
2021/04/21 04:39:09;;;;;;;3.42;2.85;;;12.30;99.90;;;;;;5064167;28;20025;-60
2021/04/21 04:41:40;;;;;;;4.05;2.75;;;12.20;99.90;;;;;;5064929;28;20499;-60
2021/04/21 04:44:06;;;;;;;4.50;2.80;;;12.30;99.90;;;;;;5065157;28;20029;-60
2021/04/21 04:46:37;;;;;;;4.35;2.88;;;12.20;99.90;;;;;;5064736;28;20021;-60
2021/04/21 04:49:15;;;;;;;3.58;2.95;;;12.20;99.90;;;;;;5064193;28;20456;-60
2021/04/21 04:51:46;;;;;;;4.07;2.97;;;12.20;99.90;;;;;;5064967;28;20348;-60
2021/04/21 04:54:14;;;;;;;7.30;2.92;;;12.30;99.90;;;;;;5065074;28;20036;-60
2021/04/21 04:56:44;;;;;;;3.05;2.63;;;12.20;99.90;;;;;;5064291;28;20024;-60
2021/04/21 04:59:12;;;;;;;4.85;2.33;;;12.20;99.90;;;;;;5065224;28;20028;-60
2021/04/21 05:01:55;;;;;;;3.40;2.75;;;12.20;99.90;;;;;;5064496;28;20513;-61
2021/04/21 05:04:25;;;;;;;3.65;2.50;;;12.20;99.90;;;;;;5065637;28;20518;-60
2021/04/21 05:06:58;;;;;;;4.07;2.70;;;12.20;99.90;;;;;;5064991;28;20044;-60
2021/04/21 05:09:27;;;;;;;3.90;3.08;;;12.20;99.90;;;;;;5044114;28;20130;-61
2021/04/21 05:11:56;;;;;;;3.80;2.97;;;12.10;99.90;;;;;;5045405;28;20025;-60
2021/04/21 05:14:23;;;;;;;3.35;3.05;;;12.10;99.90;;;;;;5045033;28;20029;-60
2021/04/21 05:16:55;;;;;;;5.85;3.47;;;12.10;99.90;;;;;;5045364;28;20025;-60
2021/04/21 05:19:26;;;;;;;3.67;3.03;;;12.10;99.90;;;;;;5045104;28;20415;-60
2021/04/21 05:22:13;;;;;;;3.45;2.80;;;11.90;99.90;;;;;;5045895;28;20024;-60
2021/04/21 05:24:54;;;;;;;3.67;2.92;;;12.00;99.90;;;;;;5044865;28;20029;-60
2021/04/21 05:27:56;;;;;;;3.88;2.75;;;12.00;99.90;;;;;;5048289;28;20502;-60
2021/04/21 05:30:30;;;;;;;4.70;3.38;;;12.00;99.90;;;;;;5049069;28;20035;-60
2021/04/21 05:33:38;;;;;;;5.55;3.13;;;12.00;99.90;;;;;;5048965;28;20032;-60
2021/04/21 05:36:25;;;;;;;5.40;2.65;;;12.00;99.90;;;;;;5038204;28;20045;-61
2021/04/21 05:39:21;;;;;;;4.70;3.08;;;12.10;99.90;;;;;;5049715;28;20025;-60
2021/04/21 05:42:28;;;;;;;3.95;2.90;;;12.00;99.90;;;;;;5048968;28;20031;-61
2021/04/21 05:45:24;;;;;;;3.38;2.40;;;12.00;99.90;;;;;;5048275;28;20025;-61
2021/04/21 05:48:02;;;;;;;3.55;2.70;;;12.10;99.90;;;;;;5049178;28;20029;-61
2021/04/21 05:51:04;;;;;;;4.88;2.30;;;12.20;99.90;;;;;;5048232;28;20170;-61
2021/04/21 05:53:49;;;;;;;3.53;2.92;;;12.00;99.90;;;;;;5048164;28;20037;-61
2021/04/21 05:56:52;;;;;;;4.10;2.88;;;12.20;99.90;;;;;;5048370;28;20098;-61
2021/04/21 05:59:23;;;;;;;5.18;2.67;;;12.00;99.90;;;;;;5058454;28;20034;-61
2021/04/21 06:01:53;;;;;;;2.63;2.40;;;12.30;99.90;;;;;;5067727;28;20032;-61
2021/04/21 06:04:19;;;;;;;3.60;2.95;;;12.30;99.90;;;;;;5068582;28;20025;-61
2021/04/21 06:06:44;;;;;;;5.03;2.97;;;12.30;99.90;;;;;;5068114;28;20024;-61
2021/04/21 06:09:11;;;;;;;4.07;2.60;;;12.30;99.90;;;;;;5067642;28;20419;-61
2021/04/21 06:11:37;;;;;;;3.20;2.53;;;12.30;99.90;;;;;;5067746;28;20028;-61
2021/04/21 06:14:05;;;;;;;5.13;3.42;;;12.40;99.90;;;;;;5067794;28;20031;-61
2021/04/21 06:16:32;;;;;;;4.25;3.40;;;12.50;99.90;;;;;;5056968;28;20399;-61
2021/04/21 06:19:02;;;;;;;4.80;3.00;;;12.30;99.90;;;;;;5048248;28;20044;-60
2021/04/21 06:21:38;;;;;;;4.45;3.42;;;12.40;99.90;;;;;;5047474;28;20025;-60
2021/04/21 06:24:25;;;;;;;3.67;3.00;;;12.30;99.90;;;;;;5047927;28;20032;-60
2021/04/21 06:27:12;;;;;;;4.00;2.72;;;12.30;99.90;;;;;;5056077;28;20063;-60
2021/04/21 06:29:40;;;;;;;6.32;2.92;;;12.20;99.90;;;;;;5068361;28;20115;-60
2021/04/21 06:32:10;;;;;;;5.03;2.88;;;12.50;99.90;;;;;;5068263;28;20032;-60
2021/04/21 06:34:36;;;;;;;3.80;2.75;;;12.70;99.90;;;;;;5066108;28;20036;-60
2021/04/21 06:37:01;;;;;;;2.72;2.30;;;12.70;99.90;;;;;;5065635;28;20032;-60
2021/04/21 06:39:32;;;;;;;4.07;2.75;;;12.20;99.90;;;;;;5067381;28;20519;-60
2021/04/21 06:42:00;;;;;;;5.57;2.80;;;12.20;99.90;;;;;;5067536;28;20028;-61
2021/04/21 06:44:47;;;;;;;3.38;2.50;;;12.30;99.90;;;;;;5066905;28;20036;-61
2021/04/21 06:47:20;;;;;;;3.33;2.70;;;12.10;99.90;;;;;;5065922;28;20043;-61
2021/04/21 06:49:57;;;;;;;2.95;2.20;;;12.30;99.90;;;;;;5067468;28;20310;-61
2021/04/21 06:52:23;;;;;;;4.50;2.70;;;12.50;99.90;;;;;;5067508;28;20055;-61
2021/04/21 06:55:21;;;;;;;3.13;2.20;;;12.40;99.90;;;;;;5067726;28;20486;-60
2021/04/21 06:57:46;;;;;;;3.55;2.40;;;12.30;99.90;;;;;;5045806;28;20037;-57
2021/04/21 07:00:22;;;;;;;3.88;2.70;;;12.60;99.90;;;;;;5051634;28;20027;-60
2021/04/21 07:02:53;;;;;;;4.38;2.53;;;12.80;99.90;;;;;;5053133;28;20111;-60
2021/04/21 07:05:34;;;;;;;4.35;2.80;;;13.00;99.90;;;;;;5059469;28;20395;-60
2021/04/21 07:08:20;;;;;;;2.92;2.33;;;12.90;99.90;;;;;;5067246;28;20028;-60
2021/04/21 07:10:52;;;;;;;4.72;2.67;;;12.90;99.90;;;;;;5046530;28;20028;-60
2021/04/21 07:13:22;;;;;;;3.85;3.22;;;13.00;99.90;;;;;;5047963;28;20029;-60
2021/04/21 07:15:55;;;;;;;3.00;2.35;;;13.30;99.90;;;;;;5059340;28;20056;-60
2021/04/21 07:18:28;;;;;;;4.32;2.65;;;13.10;99.90;;;;;;5061408;28;20021;-60
2021/04/21 07:21:00;;;;;;;2.58;2.03;;;13.30;99.90;;;;;;5049546;28;20025;-61
2021/04/21 07:23:29;;;;;;;3.35;2.25;;;13.40;99.90;;;;;;5046470;28;20446;-61
2021/04/21 07:25:55;;;;;;;3.08;2.00;;;13.40;99.90;;;;;;5046603;28;20086;-61
2021/04/21 07:28:23;;;;;;;3.25;2.20;;;13.60;99.90;;;;;;5046896;28;20056;-61
2021/04/21 07:30:54;;;;;;;3.13;2.33;;;13.70;99.90;;;;;;5047069;28;20025;-60
2021/04/21 07:33:37;;;;;;;2.47;2.10;;;13.80;99.90;;;;;;5060017;28;20033;-63
2021/04/21 07:36:17;;;;;;;2.80;1.92;;;13.60;99.90;;;;;;5065305;28;20402;-60
2021/04/21 07:38:52;;;;;;;3.20;2.20;;;13.60;99.90;;;;;;5066029;28;20422;-61
2021/04/21 07:41:37;;;;;;;2.92;1.95;;;13.80;99.90;;;;;;5066511;28;20498;-61
2021/04/21 07:44:15;;;;;;;3.80;2.00;;;13.90;99.90;;;;;;5060116;28;20296;-61
2021/04/21 07:46:42;;;;;;;3.47;2.22;;;14.00;99.90;;;;;;5044801;28;20017;-61
2021/04/21 07:49:08;;;;;;;2.35;2.15;;;14.00;99.90;;;;;;5046029;28;20040;-61
2021/04/21 07:51:36;;;;;;;2.55;2.20;;;13.90;99.90;;;;;;5045937;28;20033;-61
2021/04/21 07:54:16;;;;;;;3.00;2.08;;;14.10;99.90;;;;;;5045797;28;20028;-61
2021/04/21 07:57:01;;;;;;;2.63;2.00;;;14.30;99.90;;;;;;5045779;28;20028;-61
2021/04/21 07:59:32;;;;;;;2.30;2.00;;;14.50;99.90;;;;;;5045508;28;20079;-61
2021/04/21 08:02:15;;;;;;;2.47;1.60;;;14.50;99.90;;;;;;5063130;28;20089;-61
2021/04/21 08:04:56;;;;;;;1.60;1.50;;;14.40;99.90;;;;;;5063046;28;20032;-61
2021/04/21 08:07:42;;;;;;;3.22;1.58;;;14.50;99.90;;;;;;5065958;28;20402;-61
2021/04/21 08:10:24;;;;;;;2.50;1.60;;;14.60;99.90;;;;;;5061244;28;20410;-61
2021/04/21 08:12:53;;;;;;;1.75;1.58;;;14.60;99.90;;;;;;5064433;28;20032;-61
2021/04/21 08:15:27;;;;;;;1.88;1.30;;;14.70;99.90;;;;;;5064258;28;20486;-62
2021/04/21 08:17:59;;;;;;;2.27;1.83;;;14.60;99.90;;;;;;5061198;28;20024;-62
2021/04/21 08:20:30;;;;;;;1.75;1.30;;;14.60;99.90;;;;;;5062745;28;20017;-62
2021/04/21 08:22:59;;;;;;;1.55;1.20;;;14.70;99.90;;;;;;5045367;28;20032;-62
2021/04/21 08:25:26;;;;;;;1.73;1.20;;;14.90;99.90;;;;;;5049115;28;20020;-61
2021/04/21 08:27:52;;;;;;;1.50;1.40;;;14.90;99.90;;;;;;5063831;28;20099;-62
2021/04/21 08:30:19;;;;;;;1.38;1.20;;;15.00;99.90;;;;;;5065050;28;20060;-61
2021/04/21 08:32:45;;;;;;;1.70;1.10;;;15.10;99.90;;;;;;5065023;28;20032;-62
2021/04/21 08:35:13;;;;;;;2.50;1.30;;;15.10;99.90;;;;;;5064228;28;20123;-62
2021/04/21 08:37:40;;;;;;;1.75;1.40;;;15.10;99.90;;;;;;5064022;28;20017;-62
2021/04/21 08:40:07;;;;;;;1.85;1.15;;;15.00;99.90;;;;;;5059881;28;20066;-60
2021/04/21 08:42:37;;;;;;;1.27;1.17;;;15.10;99.90;;;;;;5059333;28;20028;-63
2021/04/21 08:45:03;;;;;;;1.05;1.00;;;15.10;99.90;;;;;;5064179;28;20020;-60
2021/04/21 08:47:32;;;;;;;1.58;1.10;;;15.10;99.90;;;;;;5064917;28;20083;-59
2021/04/21 08:49:59;;;;;;;1.00;0.90;;;15.20;99.90;;;;;;5057696;28;20119;-60
2021/04/21 08:52:29;;;;;;;1.10;1.00;;;15.20;99.90;;;;;;5044858;28;20522;-60
2021/04/21 08:54:56;;;;;;;1.25;1.15;;;15.30;99.90;;;;;;5045074;28;20028;-58
2021/04/21 08:57:22;;;;;;;1.90;1.70;;;15.30;99.90;;;;;;5061004;28;20032;-60
2021/04/21 08:59:48;;;;;;;1.55;1.05;;;15.30;99.90;;;;;;5061901;28;20088;-61
2021/04/21 09:02:16;;;;;;;1.30;0.93;;;15.20;99.90;;;;;;5052890;28;20316;-60
2021/04/21 09:04:43;;;;;;;1.83;1.10;;;15.40;99.90;;;;;;5064837;28;20017;-61
2021/04/21 09:07:11;;;;;;;1.45;0.90;;;15.60;99.90;;;;;;5065044;28;20499;-61
2021/04/21 09:09:37;;;;;;;1.10;1.00;;;15.60;99.90;;;;;;5064011;28;20068;-61
2021/04/21 09:12:04;;;;;;;0.82;0.82;;;15.60;99.90;;;;;;5065075;28;20036;-61
2021/04/21 09:14:31;;;;;;;1.30;1.20;;;15.60;99.90;;;;;;5064405;28;20121;-61
2021/04/21 09:16:57;;;;;;;0.90;0.90;;;15.70;99.90;;;;;;5065411;28;20074;-61
2021/04/21 09:19:22;;;;;;;0.90;0.90;;;15.60;99.90;;;;;;5065365;28;20417;-61
2021/04/21 09:22:09;;;;;;;1.13;1.02;;;15.60;99.90;;;;;;5065660;28;20043;-61
2021/04/21 09:24:40;;;;;;;2.28;1.23;;;15.70;99.90;;;;;;5065099;28;20031;-61
2021/04/21 09:27:25;;;;;;;2.08;1.10;;;15.70;99.90;;;;;;5064845;28;20029;-60
2021/04/21 09:30:15;;;;;;;1.77;1.08;;;15.60;99.90;;;;;;5065388;28;20033;-60
2021/04/21 09:32:49;;;;;;;2.15;1.50;;;15.80;99.90;;;;;;5064614;28;20032;-59
2021/04/21 09:35:15;;;;;;;;;;;15.60;99.90;;;;;;5064797;28;20379;-60
2021/04/21 09:37:42;;;;;;;1.30;1.20;;;15.40;99.90;;;;;;5064575;28;20366;-61
2021/04/21 09:40:10;;;;;;;1.50;1.02;;;15.70;99.90;;;;;;5064775;28;20050;-61
2021/04/21 09:42:38;;;;;;;1.17;0.90;;;15.90;99.90;;;;;;5063984;28;20238;-61
2021/04/21 09:45:06;;;;;;;0.70;0.70;;;16.20;99.90;;;;;;5064702;28;20094;-61
2021/04/21 09:47:31;;;;;;;0.90;0.90;;;16.30;99.90;;;;;;5063489;28;20463;-61
2021/04/21 09:49:58;;;;;;;0.63;0.63;;;16.50;99.90;;;;;;5056461;28;20096;-61
2021/04/21 09:52:24;;;;;;;0.88;0.80;;;16.50;99.90;;;;;;5065018;28;20521;-60
2021/04/21 09:54:51;;;;;;;0.80;0.80;;;16.50;99.10;;;;;;5066661;28;20025;-61
2021/04/21 09:57:27;;;;;;;1.00;0.90;;;16.50;99.90;;;;;;5065810;28;20020;-60
2021/04/21 09:59:59;;;;;;;2.00;0.80;;;16.50;99.20;;;;;;5066080;28;20078;-60
2021/04/21 10:02:32;;;;;;;0.80;0.80;;;16.50;99.20;;;;;;5064021;28;20108;-61
2021/04/21 10:05:18;;;;;;;1.65;0.82;;;16.80;99.90;;;;;;5065913;28;20028;-61
2021/04/21 10:07:44;;;;;;;0.70;0.70;;;16.90;99.00;;;;;;5060193;28;20458;-60
2021/04/21 10:10:10;;;;;;;0.70;0.70;;;16.70;98.50;;;;;;5064719;28;20044;-61
2021/04/21 10:12:39;;;;;;;0.70;0.70;;;16.70;98.50;;;;;;5065181;28;20048;-61
2021/04/21 10:15:11;;;;;;;0.73;0.73;;;16.80;98.10;;;;;;5068447;28;20060;-61
2021/04/21 10:17:44;;;;;;;2.08;0.75;;;16.70;98.00;;;;;;5067652;28;20418;-61
2021/04/21 10:20:18;;;;;;;1.00;0.90;;;16.60;96.30;;;;;;5067631;28;20035;-62
2021/04/21 10:22:45;;;;;;;1.23;1.13;;;16.30;95.30;;;;;;5055280;28;20041;-63
2021/04/21 10:25:14;;;;;;;2.70;1.00;;;16.20;95.50;;;;;;5049054;28;20083;-63
2021/04/21 10:27:41;;;;;;;1.35;0.95;;;16.20;94.40;;;;;;5046980;28;20132;-62
2021/04/21 10:30:09;;;;;;;1.13;1.02;;;16.30;94.60;;;;;;5047796;28;20052;-63
2021/04/21 10:32:36;;;;;;;0.70;0.70;;;16.50;94.30;;;;;;5057780;28;20048;-62
2021/04/21 10:35:02;;;;;;;1.05;0.85;;;16.60;94.40;;;;;;5046880;28;20021;-63
2021/04/21 10:37:33;;;;;;;1.13;0.68;;;16.50;95.50;;;;;;5050061;28;20104;-62
2021/04/21 10:39:58;;;;;;;0.70;0.70;;;16.80;94.50;;;;;;5068000;28;20031;-62
2021/04/21 10:42:25;;;;;;;1.40;0.73;;;16.70;94.10;;;;;;5046716;28;20321;-66
2021/04/21 10:44:52;;;;;;;1.00;0.90;;;16.80;93.80;;;;;;5063920;28;20028;-63
2021/04/21 10:47:27;;;;;;;1.08;0.80;;;16.50;93.60;;;;;;5053800;28;20108;-64
2021/04/21 10:50:01;;;;;;;0.77;0.73;;;16.80;95.50;;;;;;5047500;28;20111;-63
2021/04/21 10:52:28;;;;;;;0.77;0.77;;;17.20;97.00;;;;;;5063176;28;20059;-63
2021/04/21 10:54:57;;;;;;;1.02;0.85;;;17.30;97.90;;;;;;5066378;28;20024;-62
2021/04/21 10:57:23;;;;;;;0.70;0.70;;;17.50;98.10;;;;;;5065495;28;20584;-62
2021/04/21 11:00:17;;;;;;;1.13;0.80;;;17.60;97.60;;;;;;5065858;28;20044;-62
2021/04/21 11:02:44;;;;;;;;;;;17.40;97.80;;;;;;5065219;28;20036;-62
2021/04/21 11:05:15;;;;;;;1.17;1.08;;;17.40;97.90;;;;;;5066555;28;19947;-62
2021/04/21 11:07:44;;;;;;;1.20;0.90;;;17.40;97.60;;;;;;5063846;28;20519;-63
2021/04/21 11:10:52;;;;;;;0.98;0.90;;;17.40;98.00;;;;;;5063928;28;20316;-63
2021/04/21 11:13:43;;;;;;;1.00;0.90;;;17.70;97.70;;;;;;5064901;28;20023;-63
2021/04/21 11:16:12;;;;;;;1.27;1.00;;;17.60;97.90;;;;;;5066305;28;20052;-64
2021/04/21 11:18:39;;;;;;;0.82;0.70;;;17.60;97.70;;;;;;5061596;28;20017;-63
2021/04/21 11:21:12;;;;;;;1.15;0.80;;;17.50;97.50;;;;;;5046278;28;20025;-63
2021/04/21 11:24:08;;;;;;;0.70;0.70;;;17.50;98.10;;;;;;5044640;28;20033;-63
2021/04/21 11:26:35;;;;;;;1.13;0.90;;;17.40;97.60;;;;;;5045441;28;20036;-63
2021/04/21 11:29:13;;;;;;;1.15;1.05;;;17.50;97.50;;;;;;5046210;28;20086;-63
2021/04/21 11:31:50;;;;;;;0.90;0.70;;;17.50;97.20;;;;;;5045838;28;20029;-63
2021/04/21 11:34:19;;;;;;;1.13;0.80;;;17.60;97.10;;;;;;5045713;28;20070;-62
2021/04/21 11:36:53;;;;;;;1.30;1.20;;;17.40;97.50;;;;;;5045882;28;20446;-63
2021/04/21 11:42:40;;;;;;;1.15;1.05;;;17.20;97.90;;;;;;5062776;28;20411;-64
2021/04/21 11:45:11;;;;;;;1.00;0.90;;;17.40;97.60;;;;;;5066014;28;20481;-64
2021/04/21 11:47:50;;;;;;;1.10;1.00;;;17.20;97.50;;;;;;5064623;28;20400;-63
2021/04/21 11:50:22;;;;;;;1.30;1.17;;;17.20;97.40;;;;;;5065453;28;20033;-63
2021/04/21 11:53:13;;;;;;;1.33;1.10;;;17.10;97.20;;;;;;5064585;28;20028;-64
2021/04/21 11:55:57;;;;;;;1.23;1.00;;;17.10;97.60;;;;;;5048746;28;20025;-62
2021/04/21 11:58:27;;;;;;;;;;;17.20;97.70;;;;;;5046352;28;20029;-63
2021/04/21 12:00:58;;;;;;;0.95;0.95;;;17.10;97.50;;;;;;5045862;28;19962;-62
2021/04/21 12:03:28;;;;;;;0.90;0.90;;;17.20;97.10;;;;;;5060232;28;20060;-63
2021/04/21 12:05:58;;;;;;;1.40;0.90;;;17.10;97.10;;;;;;5065773;28;20056;-63
2021/04/21 12:08:29;;;;;;;1.08;0.98;;;17.20;97.60;;;;;;5063250;28;20040;-63
2021/04/21 12:10:58;;;;;;;1.17;0.82;;;17.20;98.00;;;;;;5064996;28;20036;-63
2021/04/21 12:13:25;;;;;;;1.13;1.02;;;17.20;97.90;;;;;;5063659;28;20033;-63
2021/04/21 12:15:57;;;;;;;1.20;1.08;;;17.20;97.70;;;;;;5054363;28;20024;-63
2021/04/21 12:18:34;;;;;;;1.58;0.90;;;17.20;97.30;;;;;;5065373;28;20428;-61
2021/04/21 12:21:02;;;;;;;0.90;0.90;;;17.30;97.00;;;;;;5064984;28;20031;-62
2021/04/21 12:23:36;;;;;;;1.05;0.85;;;17.20;97.70;;;;;;5064502;28;20044;-61
2021/04/21 12:26:04;;;;;;;1.08;0.90;;;17.30;96.90;;;;;;5065342;28;20040;-62
2021/04/21 12:28:48;;;;;;;1.10;1.00;;;17.20;96.30;;;;;;5064630;28;20024;-61
2021/04/21 12:31:15;;;;;;;1.17;0.80;;;17.10;96.70;;;;;;5064878;28;20036;-64
2021/04/21 12:33:42;;;;;;;0.93;0.93;;;17.20;96.60;;;;;;5064719;28;20550;-61
2021/04/21 12:36:08;;;;;;;1.80;1.27;;;17.30;96.60;;;;;;5064278;28;20150;-61
2021/04/21 12:38:35;;;;;;;0.95;0.90;;;17.20;97.20;;;;;;5064446;28;20020;-60
2021/04/21 12:41:03;;;;;;;0.90;0.80;;;17.20;97.10;;;;;;5064532;28;20055;-62
2021/04/21 12:43:32;;;;;;;1.25;1.13;;;17.00;97.50;;;;;;5063918;28;20074;-63
2021/04/21 12:46:19;;;;;;;1.10;1.00;;;17.00;97.90;;;;;;5064321;28;20032;-65
2021/04/21 12:48:50;;;;;;;1.60;1.50;;;17.00;97.60;;;;;;5054933;28;20546;-64
2021/04/21 12:51:30;;;;;;;2.95;1.38;;;16.30;98.60;;;;;;5064381;28;20039;-62
2021/04/21 12:53:58;;;;;;;1.40;1.10;;;16.20;99.20;;;;;;5064714;28;20261;-62
2021/04/21 12:56:41;;;;;;;2.67;2.13;;;15.80;99.20;;;;;;5064738;28;20037;-62
2021/04/21 12:59:14;;;;;;;2.22;1.70;;;15.50;99.60;;;;;;5064466;28;20020;-61
2021/04/21 13:01:41;;;;;;;3.30;2.33;;;15.40;99.90;;;;;;5064143;28;20027;-61
2021/04/21 13:04:11;;;;;;;3.42;2.30;;;15.20;99.90;;;;;;5064429;28;20024;-62
2021/04/21 13:06:41;;;;;;;3.75;2.22;;;15.10;99.90;;;;;;5064110;28;20099;-63
2021/04/21 13:09:18;;;;;;;2.28;1.80;;;15.00;99.90;;;;;;5063943;28;20709;-64
2021/04/21 13:11:47;;;;;;;3.40;1.65;;;15.10;99.90;;;;;;5063919;28;20267;-62
2021/04/21 13:14:15;;;;;;;2.63;1.73;;;15.20;99.90;;;;;;5064128;28;20117;-63
2021/04/21 13:16:49;;;;;;;1.63;1.40;;;15.00;99.90;;;;;;5063776;28;20052;-64
2021/04/21 13:19:21;;;;;;;1.90;1.50;;;14.80;99.90;;;;;;5064336;28;20027;-63
2021/04/21 13:22:02;;;;;;;4.00;1.88;;;14.70;99.90;;;;;;5064117;28;20418;-61
2021/04/21 13:24:28;;;;;;;3.45;2.20;;;14.50;99.90;;;;;;5064275;28;20024;-61